IBE006 LEZG-EDDF
Flight info
| Callsign | IBE006 |
|---|---|
| Flight time | 1h 30m |
| Altitude | 32000 |
| Route | SURCO TOPTU TOU GAI MEN NINUN UN871 OMASI N871 KINNI SOSAL KORED BERSU DITON LADOL T163 EMPAX |
| Aircraft | B772/H-SDE2E3FGHIJ5LORVWXY/LB1D1 |
Departure
| Time | 2026-04-16 07:27 |
|---|---|
| Airport | Zaragoza Airport (LEZG) |
Arrival
| Time | 2026-04-16 08:57 |
|---|---|
| Airport | Frankfurt Main Airport (EDDF) |
| Time | Latitude | Longitude | Altitude | Speed | Heading |
|---|---|---|---|---|---|
| 2026-04-16 07:23 | 41.65974 | -1.00746 | 879 ft | 0 kts | 31° |
| 2026-04-16 07:24 | 41.65979 | -1.00742 | 879 ft | 7 kts | 31° |
| 2026-04-16 07:24 | 41.65992 | -1.00674 | 879 ft | 6 kts | 126° |
| 2026-04-16 07:24 | 41.65973 | -1.00658 | 879 ft | 1 kts | 163° |
| 2026-04-16 07:24 | 41.65874 | -1.00659 | 879 ft | 20 kts | 197° |
| 2026-04-16 07:25 | 41.65760 | -1.00719 | 879 ft | 15 kts | 202° |
| 2026-04-16 07:25 | 41.65686 | -1.00759 | 879 ft | 8 kts | 202° |
| 2026-04-16 07:25 | 41.65650 | -1.00779 | 879 ft | 3 kts | 202° |
| 2026-04-16 07:25 | 41.65595 | -1.00821 | 879 ft | 3 kts | 244° |
| 2026-04-16 07:26 | 41.65623 | -1.01020 | 879 ft | 44 kts | 300° |
| 2026-04-16 07:26 | 41.65875 | -1.01601 | 879 ft | 98 kts | 300° |
| 2026-04-16 07:26 | 41.66295 | -1.02569 | 880 ft | 140 kts | 300° |
| 2026-04-16 07:26 | 41.66829 | -1.03748 | 1157 ft | 153 kts | 308° |
| 2026-04-16 07:27 | 41.67753 | -1.04369 | 1694 ft | 151 kts | 359° |
| 2026-04-16 07:27 | 41.68703 | -1.03869 | 2211 ft | 153 kts | 45° |
| 2026-04-16 07:27 | 41.69354 | -1.02689 | 2643 ft | 165 kts | 60° |
| 2026-04-16 07:27 | 41.70002 | -1.01321 | 3051 ft | 185 kts | 48° |
| 2026-04-16 07:28 | 41.70970 | -1.00026 | 3486 ft | 211 kts | 40° |
| 2026-04-16 07:28 | 41.72220 | -0.98769 | 3916 ft | 239 kts | 34° |
| 2026-04-16 07:28 | 41.73688 | -0.97480 | 4331 ft | 265 kts | 33° |
| 2026-04-16 07:28 | 41.75225 | -0.96105 | 4731 ft | 262 kts | 33° |
| 2026-04-16 07:29 | 41.76701 | -0.94721 | 5308 ft | 261 kts | 33° |
| 2026-04-16 07:29 | 41.78196 | -0.93299 | 6095 ft | 265 kts | 32° |
| 2026-04-16 07:29 | 41.79717 | -0.91860 | 6858 ft | 271 kts | 31° |
| 2026-04-16 07:29 | 41.81281 | -0.90391 | 7521 ft | 279 kts | 31° |
| 2026-04-16 07:30 | 41.82889 | -0.88883 | 8203 ft | 285 kts | 31° |
| 2026-04-16 07:30 | 41.84518 | -0.87347 | 9025 ft | 287 kts | 31° |
| 2026-04-16 07:30 | 41.86152 | -0.85805 | 9823 ft | 289 kts | 31° |
| 2026-04-16 07:30 | 41.87812 | -0.84239 | 10448 ft | 295 kts | 31° |
| 2026-04-16 07:31 | 41.89514 | -0.82633 | 10985 ft | 303 kts | 32° |
| 2026-04-16 07:31 | 41.91292 | -0.80955 | 11474 ft | 313 kts | 32° |
| 2026-04-16 07:31 | 41.93073 | -0.79271 | 11925 ft | 323 kts | 32° |
| 2026-04-16 07:31 | 41.94938 | -0.77506 | 12359 ft | 332 kts | 32° |
| 2026-04-16 07:32 | 41.96854 | -0.75692 | 12766 ft | 342 kts | 32° |
| 2026-04-16 07:32 | 41.98828 | -0.73821 | 13144 ft | 352 kts | 32° |
| 2026-04-16 07:32 | 42.00855 | -0.71899 | 13492 ft | 361 kts | 32° |
| 2026-04-16 07:32 | 42.02933 | -0.69926 | 13875 ft | 369 kts | 32° |
| 2026-04-16 07:33 | 42.05034 | -0.67929 | 14406 ft | 370 kts | 32° |
| 2026-04-16 07:33 | 42.07168 | -0.65899 | 14946 ft | 372 kts | 32° |
| 2026-04-16 07:33 | 42.09289 | -0.63882 | 15406 ft | 375 kts | 32° |
| 2026-04-16 07:33 | 42.11432 | -0.61842 | 15855 ft | 378 kts | 32° |
| 2026-04-16 07:34 | 42.13587 | -0.59787 | 16301 ft | 381 kts | 32° |
| 2026-04-16 07:34 | 42.15755 | -0.57719 | 16733 ft | 383 kts | 32° |
| 2026-04-16 07:34 | 42.17938 | -0.55635 | 17148 ft | 386 kts | 32° |
| 2026-04-16 07:34 | 42.20134 | -0.53537 | 17553 ft | 388 kts | 32° |
| 2026-04-16 07:35 | 42.22345 | -0.51423 | 17959 ft | 391 kts | 32° |
| 2026-04-16 07:35 | 42.24573 | -0.49291 | 18369 ft | 393 kts | 32° |
| 2026-04-16 07:35 | 42.26809 | -0.47148 | 18791 ft | 396 kts | 32° |
| 2026-04-16 07:35 | 42.29059 | -0.44991 | 19218 ft | 398 kts | 32° |
| 2026-04-16 07:36 | 42.31322 | -0.42819 | 19631 ft | 400 kts | 32° |
| 2026-04-16 07:36 | 42.33597 | -0.40634 | 20031 ft | 403 kts | 32° |
| 2026-04-16 07:36 | 42.35892 | -0.38428 | 20439 ft | 406 kts | 32° |
| 2026-04-16 07:36 | 42.38196 | -0.36210 | 20871 ft | 408 kts | 32° |
| 2026-04-16 07:37 | 42.40514 | -0.33977 | 21303 ft | 410 kts | 32° |
| 2026-04-16 07:37 | 42.42847 | -0.31728 | 21706 ft | 413 kts | 32° |
| 2026-04-16 07:37 | 42.45193 | -0.29465 | 22106 ft | 416 kts | 32° |
| 2026-04-16 07:37 | 42.47553 | -0.27185 | 22525 ft | 418 kts | 32° |
| 2026-04-16 07:38 | 42.49926 | -0.24890 | 22960 ft | 420 kts | 32° |
| 2026-04-16 07:38 | 42.52312 | -0.22580 | 23378 ft | 423 kts | 33° |
| 2026-04-16 07:38 | 42.54709 | -0.20259 | 23774 ft | 426 kts | 33° |
| 2026-04-16 07:38 | 42.57136 | -0.17906 | 24178 ft | 429 kts | 33° |
| 2026-04-16 07:39 | 42.59568 | -0.15545 | 24604 ft | 431 kts | 33° |
| 2026-04-16 07:39 | 42.62012 | -0.13171 | 25035 ft | 433 kts | 33° |
| 2026-04-16 07:39 | 42.64468 | -0.10782 | 25439 ft | 436 kts | 33° |
| 2026-04-16 07:39 | 42.66942 | -0.08374 | 25828 ft | 439 kts | 33° |
| 2026-04-16 07:40 | 42.69431 | -0.05949 | 26208 ft | 441 kts | 33° |
| 2026-04-16 07:40 | 42.71933 | -0.03508 | 26573 ft | 444 kts | 33° |
| 2026-04-16 07:40 | 42.74448 | -0.01053 | 26922 ft | 446 kts | 33° |
| 2026-04-16 07:40 | 42.76974 | 0.01416 | 27257 ft | 449 kts | 33° |
| 2026-04-16 07:41 | 42.79512 | 0.03900 | 27578 ft | 451 kts | 33° |
| 2026-04-16 07:41 | 42.82069 | 0.06404 | 27889 ft | 453 kts | 33° |
| 2026-04-16 07:41 | 42.84631 | 0.08916 | 28186 ft | 455 kts | 33° |
| 2026-04-16 07:41 | 42.87206 | 0.11444 | 28471 ft | 457 kts | 33° |
| 2026-04-16 07:42 | 42.89794 | 0.13987 | 28746 ft | 459 kts | 33° |
| 2026-04-16 07:42 | 42.92387 | 0.16537 | 29010 ft | 461 kts | 33° |
| 2026-04-16 07:42 | 42.94993 | 0.19102 | 29263 ft | 463 kts | 33° |
| 2026-04-16 07:42 | 42.97610 | 0.21682 | 29507 ft | 465 kts | 33° |
| 2026-04-16 07:43 | 43.00237 | 0.24275 | 29742 ft | 466 kts | 33° |
| 2026-04-16 07:43 | 43.02869 | 0.26874 | 29967 ft | 468 kts | 33° |
| 2026-04-16 07:43 | 43.05511 | 0.29486 | 30185 ft | 470 kts | 33° |
| 2026-04-16 07:43 | 43.08167 | 0.32116 | 30394 ft | 471 kts | 33° |
| 2026-04-16 07:44 | 43.10826 | 0.34751 | 30595 ft | 473 kts | 33° |
| 2026-04-16 07:44 | 43.13492 | 0.37396 | 30789 ft | 474 kts | 33° |
| 2026-04-16 07:44 | 43.16163 | 0.40049 | 30975 ft | 476 kts | 33° |
| 2026-04-16 07:44 | 43.18844 | 0.42714 | 31154 ft | 477 kts | 33° |
| 2026-04-16 07:45 | 43.21536 | 0.45394 | 31326 ft | 478 kts | 33° |
| 2026-04-16 07:45 | 43.24231 | 0.48079 | 31493 ft | 480 kts | 33° |
| 2026-04-16 07:45 | 43.26928 | 0.50770 | 31649 ft | 481 kts | 33° |
| 2026-04-16 07:45 | 43.29629 | 0.53468 | 31777 ft | 483 kts | 33° |
| 2026-04-16 07:46 | 43.32322 | 0.56161 | 31929 ft | 483 kts | 33° |
| 2026-04-16 07:46 | 43.37698 | 0.61547 | 32003 ft | 468 kts | 33° |
| 2026-04-16 07:47 | 43.42913 | 0.66780 | 32009 ft | 466 kts | 33° |
| 2026-04-16 07:47 | 43.48156 | 0.72055 | 32010 ft | 467 kts | 33° |
| 2026-04-16 07:48 | 43.53395 | 0.77336 | 32010 ft | 467 kts | 33° |
| 2026-04-16 07:48 | 43.58653 | 0.82648 | 32012 ft | 473 kts | 34° |
| 2026-04-16 07:49 | 43.64015 | 0.88078 | 32009 ft | 483 kts | 34° |
| 2026-04-16 07:49 | 43.69476 | 0.93621 | 32005 ft | 491 kts | 34° |
| 2026-04-16 07:50 | 43.75007 | 0.99248 | 32002 ft | 496 kts | 34° |
| 2026-04-16 07:50 | 43.80583 | 1.04935 | 31998 ft | 499 kts | 34° |
| 2026-04-16 07:51 | 43.86162 | 1.10638 | 31994 ft | 498 kts | 34° |
| 2026-04-16 07:51 | 43.91735 | 1.16348 | 31991 ft | 498 kts | 34° |
| 2026-04-16 07:52 | 43.97305 | 1.22068 | 31987 ft | 498 kts | 34° |
| 2026-04-16 07:52 | 44.02872 | 1.27800 | 31984 ft | 498 kts | 34° |
| 2026-04-16 07:53 | 44.07532 | 1.32608 | 31981 ft | 498 kts | 34° |
| 2026-04-16 07:53 | 44.13096 | 1.38361 | 31980 ft | 498 kts | 34° |
| 2026-04-16 07:54 | 44.18653 | 1.44122 | 31981 ft | 498 kts | 34° |
| 2026-04-16 07:54 | 44.24209 | 1.49895 | 31982 ft | 498 kts | 34° |
| 2026-04-16 07:55 | 44.29758 | 1.55675 | 31983 ft | 498 kts | 34° |
| 2026-04-16 07:55 | 44.35310 | 1.61471 | 31984 ft | 498 kts | 34° |
| 2026-04-16 07:56 | 44.40860 | 1.67280 | 31985 ft | 498 kts | 34° |
| 2026-04-16 07:56 | 44.46403 | 1.73095 | 31986 ft | 498 kts | 34° |
| 2026-04-16 07:57 | 44.51908 | 1.78885 | 31987 ft | 498 kts | 34° |
| 2026-04-16 07:57 | 44.57483 | 1.84762 | 31987 ft | 498 kts | 34° |
| 2026-04-16 07:58 | 44.63015 | 1.90609 | 31988 ft | 498 kts | 34° |
| 2026-04-16 07:58 | 44.68513 | 1.96434 | 31989 ft | 498 kts | 34° |
| 2026-04-16 07:59 | 44.74044 | 2.02307 | 31990 ft | 498 kts | 34° |
| 2026-04-16 07:59 | 44.79572 | 2.08193 | 31991 ft | 498 kts | 34° |
| 2026-04-16 08:00 | 44.85095 | 2.14087 | 31992 ft | 498 kts | 35° |
| 2026-04-16 08:00 | 44.90616 | 2.19995 | 31993 ft | 498 kts | 35° |
| 2026-04-16 08:01 | 44.96168 | 2.25950 | 31994 ft | 498 kts | 35° |
| 2026-04-16 08:01 | 45.01684 | 2.31881 | 31995 ft | 498 kts | 35° |
| 2026-04-16 08:02 | 45.07199 | 2.37825 | 31996 ft | 498 kts | 35° |
| 2026-04-16 08:02 | 45.15461 | 2.46759 | 31997 ft | 498 kts | 35° |
| 2026-04-16 08:03 | 45.20968 | 2.52732 | 31998 ft | 498 kts | 35° |
| 2026-04-16 08:03 | 45.26437 | 2.58679 | 31999 ft | 498 kts | 35° |
| 2026-04-16 08:04 | 45.31939 | 2.64677 | 32000 ft | 498 kts | 35° |
| 2026-04-16 08:04 | 45.37470 | 2.70721 | 32001 ft | 498 kts | 35° |
| 2026-04-16 08:05 | 45.42932 | 2.76705 | 32002 ft | 498 kts | 35° |
| 2026-04-16 08:05 | 45.48461 | 2.82778 | 32003 ft | 498 kts | 35° |
| 2026-04-16 08:06 | 45.53945 | 2.88817 | 32004 ft | 498 kts | 35° |
| 2026-04-16 08:06 | 45.59396 | 2.94834 | 32005 ft | 499 kts | 35° |
| 2026-04-16 08:07 | 45.64877 | 3.00900 | 32006 ft | 499 kts | 35° |
| 2026-04-16 08:07 | 45.70360 | 3.06984 | 32007 ft | 499 kts | 36° |
| 2026-04-16 08:08 | 45.75870 | 3.13113 | 32007 ft | 499 kts | 36° |
| 2026-04-16 08:08 | 45.81344 | 3.19218 | 32008 ft | 499 kts | 36° |
| 2026-04-16 08:09 | 45.86782 | 3.25298 | 32009 ft | 499 kts | 36° |
| 2026-04-16 08:09 | 45.92284 | 3.31466 | 32010 ft | 499 kts | 36° |
| 2026-04-16 08:10 | 45.97750 | 3.37609 | 32011 ft | 499 kts | 36° |
| 2026-04-16 08:10 | 46.03212 | 3.43764 | 32012 ft | 499 kts | 36° |
| 2026-04-16 08:11 | 46.08671 | 3.49930 | 32013 ft | 499 kts | 36° |
| 2026-04-16 08:11 | 46.14122 | 3.56104 | 32010 ft | 499 kts | 36° |
| 2026-04-16 08:12 | 46.19574 | 3.62295 | 32007 ft | 499 kts | 36° |
| 2026-04-16 08:12 | 46.25029 | 3.68505 | 32003 ft | 499 kts | 36° |
| 2026-04-16 08:13 | 46.30469 | 3.74715 | 32000 ft | 499 kts | 36° |
| 2026-04-16 08:13 | 46.35915 | 3.80948 | 31996 ft | 499 kts | 36° |
| 2026-04-16 08:14 | 46.41350 | 3.87184 | 31993 ft | 499 kts | 36° |
| 2026-04-16 08:14 | 46.46787 | 3.93439 | 31990 ft | 499 kts | 36° |
| 2026-04-16 08:15 | 46.52215 | 3.99700 | 31986 ft | 499 kts | 36° |
| 2026-04-16 08:15 | 46.57644 | 4.05979 | 31983 ft | 499 kts | 36° |
| 2026-04-16 08:16 | 46.63071 | 4.12272 | 31980 ft | 499 kts | 36° |
| 2026-04-16 08:16 | 46.68490 | 4.18572 | 31980 ft | 499 kts | 36° |
| 2026-04-16 08:17 | 46.73905 | 4.24884 | 31981 ft | 499 kts | 36° |
| 2026-04-16 08:17 | 46.79322 | 4.31216 | 31982 ft | 499 kts | 36° |
| 2026-04-16 08:19 | 47.00942 | 4.56654 | 31986 ft | 499 kts | 37° |
| 2026-04-16 08:20 | 47.06344 | 4.63053 | 31987 ft | 499 kts | 37° |
| 2026-04-16 08:20 | 47.11739 | 4.69461 | 31988 ft | 499 kts | 37° |
| 2026-04-16 08:21 | 47.17130 | 4.75881 | 31989 ft | 499 kts | 37° |
| 2026-04-16 08:21 | 47.22513 | 4.82308 | 31990 ft | 499 kts | 37° |
| 2026-04-16 08:22 | 47.27898 | 4.88756 | 31991 ft | 499 kts | 37° |
| 2026-04-16 08:22 | 47.33284 | 4.95222 | 31992 ft | 499 kts | 37° |
| 2026-04-16 08:23 | 47.38661 | 5.01695 | 31993 ft | 499 kts | 37° |
| 2026-04-16 08:23 | 47.44030 | 5.08176 | 31994 ft | 499 kts | 37° |
| 2026-04-16 08:24 | 47.49404 | 5.14681 | 31994 ft | 499 kts | 37° |
| 2026-04-16 08:24 | 47.54768 | 5.21192 | 31995 ft | 499 kts | 37° |
| 2026-04-16 08:25 | 47.60137 | 5.27726 | 31996 ft | 499 kts | 37° |
| 2026-04-16 08:25 | 47.65497 | 5.34267 | 31997 ft | 499 kts | 37° |
| 2026-04-16 08:26 | 47.70851 | 5.40819 | 31998 ft | 499 kts | 37° |
| 2026-04-16 08:26 | 47.76205 | 5.47390 | 31999 ft | 499 kts | 37° |
| 2026-04-16 08:27 | 47.81558 | 5.53976 | 32000 ft | 499 kts | 37° |
| 2026-04-16 08:27 | 47.86905 | 5.60574 | 32001 ft | 499 kts | 37° |
| 2026-04-16 08:28 | 47.92245 | 5.67182 | 32002 ft | 499 kts | 37° |
| 2026-04-16 08:28 | 47.97586 | 5.73808 | 32003 ft | 499 kts | 37° |
| 2026-04-16 08:29 | 48.02924 | 5.80450 | 32004 ft | 499 kts | 37° |
| 2026-04-16 08:29 | 48.08252 | 5.87098 | 32005 ft | 499 kts | 38° |
| 2026-04-16 08:30 | 48.13583 | 5.93768 | 32006 ft | 499 kts | 38° |
| 2026-04-16 08:30 | 48.18907 | 6.00448 | 32007 ft | 499 kts | 38° |
| 2026-04-16 08:31 | 48.24229 | 6.07145 | 32008 ft | 499 kts | 38° |
| 2026-04-16 08:31 | 48.29544 | 6.13851 | 32008 ft | 499 kts | 38° |
| 2026-04-16 08:32 | 48.34861 | 6.20579 | 32009 ft | 499 kts | 38° |
| 2026-04-16 08:32 | 48.39278 | 6.26182 | 32010 ft | 499 kts | 38° |
| 2026-04-16 08:33 | 48.44581 | 6.32928 | 32011 ft | 499 kts | 38° |
| 2026-04-16 08:33 | 48.49887 | 6.39696 | 32012 ft | 499 kts | 38° |
| 2026-04-16 08:34 | 48.55186 | 6.46474 | 32013 ft | 499 kts | 38° |
| 2026-04-16 08:34 | 48.60483 | 6.53268 | 32011 ft | 500 kts | 38° |
| 2026-04-16 08:35 | 48.65775 | 6.60078 | 32007 ft | 500 kts | 38° |
| 2026-04-16 08:35 | 48.71065 | 6.66901 | 32004 ft | 500 kts | 38° |
| 2026-04-16 08:36 | 48.76346 | 6.73735 | 32000 ft | 500 kts | 38° |
| 2026-04-16 08:36 | 48.81625 | 6.80584 | 31997 ft | 499 kts | 38° |
| 2026-04-16 08:37 | 48.84214 | 6.83954 | 31992 ft | 480 kts | 38° |
| 2026-04-16 08:37 | 48.86710 | 6.87206 | 31954 ft | 467 kts | 38° |
| 2026-04-16 08:37 | 48.89163 | 6.90403 | 31211 ft | 465 kts | 38° |
| 2026-04-16 08:37 | 48.91640 | 6.93633 | 30023 ft | 473 kts | 38° |
| 2026-04-16 08:38 | 48.94160 | 6.96927 | 28717 ft | 482 kts | 38° |
| 2026-04-16 08:38 | 48.96684 | 7.00234 | 27261 ft | 478 kts | 38° |
| 2026-04-16 08:38 | 48.99201 | 7.03535 | 25833 ft | 475 kts | 38° |
| 2026-04-16 08:38 | 49.01680 | 7.06791 | 24636 ft | 466 kts | 38° |
| 2026-04-16 08:39 | 49.04108 | 7.09984 | 23497 ft | 456 kts | 38° |
| 2026-04-16 08:39 | 49.06489 | 7.13118 | 22336 ft | 449 kts | 38° |
| 2026-04-16 08:39 | 49.08832 | 7.16207 | 21175 ft | 442 kts | 38° |
| 2026-04-16 08:39 | 49.11138 | 7.19250 | 20053 ft | 435 kts | 38° |
| 2026-04-16 08:40 | 49.13404 | 7.22244 | 18975 ft | 427 kts | 38° |
| 2026-04-16 08:40 | 49.15633 | 7.25194 | 17915 ft | 420 kts | 38° |
| 2026-04-16 08:40 | 49.17823 | 7.28095 | 16872 ft | 414 kts | 38° |
| 2026-04-16 08:40 | 49.19992 | 7.30971 | 15917 ft | 412 kts | 38° |
| 2026-04-16 08:41 | 49.22117 | 7.33794 | 15122 ft | 398 kts | 38° |
| 2026-04-16 08:41 | 49.24180 | 7.36538 | 14260 ft | 388 kts | 38° |
| 2026-04-16 08:41 | 49.26191 | 7.39215 | 13441 ft | 379 kts | 38° |
| 2026-04-16 08:41 | 49.28153 | 7.41830 | 12691 ft | 369 kts | 38° |
| 2026-04-16 08:42 | 49.30064 | 7.44379 | 12003 ft | 360 kts | 38° |
| 2026-04-16 08:42 | 49.31926 | 7.46866 | 11414 ft | 352 kts | 38° |
| 2026-04-16 08:42 | 49.33766 | 7.49324 | 11097 ft | 348 kts | 38° |
| 2026-04-16 08:42 | 49.35580 | 7.51750 | 10821 ft | 344 kts | 38° |
| 2026-04-16 08:43 | 49.37367 | 7.54144 | 10562 ft | 339 kts | 38° |
| 2026-04-16 08:43 | 49.39131 | 7.56510 | 10313 ft | 335 kts | 38° |
| 2026-04-16 08:43 | 49.40861 | 7.58833 | 10238 ft | 325 kts | 38° |
| 2026-04-16 08:43 | 49.42531 | 7.61079 | 10215 ft | 314 kts | 38° |
| 2026-04-16 08:44 | 49.44147 | 7.63252 | 10192 ft | 305 kts | 38° |
| 2026-04-16 08:44 | 49.45718 | 7.65366 | 10174 ft | 296 kts | 38° |
| 2026-04-16 08:44 | 49.47260 | 7.67441 | 10001 ft | 294 kts | 38° |
| 2026-04-16 08:44 | 49.48787 | 7.69500 | 9974 ft | 292 kts | 38° |
| 2026-04-16 08:45 | 49.50308 | 7.71550 | 9843 ft | 290 kts | 38° |
| 2026-04-16 08:45 | 49.51819 | 7.73590 | 9670 ft | 288 kts | 38° |
| 2026-04-16 08:45 | 49.53323 | 7.75623 | 9472 ft | 288 kts | 38° |
| 2026-04-16 08:45 | 49.54825 | 7.77655 | 9260 ft | 288 kts | 38° |
| 2026-04-16 08:46 | 49.56330 | 7.79692 | 9046 ft | 288 kts | 38° |
| 2026-04-16 08:46 | 49.57829 | 7.81724 | 8875 ft | 287 kts | 38° |
| 2026-04-16 08:46 | 49.59318 | 7.83745 | 8736 ft | 284 kts | 38° |
| 2026-04-16 08:46 | 49.60797 | 7.85753 | 8585 ft | 282 kts | 38° |
| 2026-04-16 08:47 | 49.62280 | 7.87765 | 8284 ft | 286 kts | 38° |
| 2026-04-16 08:47 | 49.63777 | 7.89800 | 8065 ft | 287 kts | 38° |
| 2026-04-16 08:47 | 49.65273 | 7.91836 | 7874 ft | 286 kts | 38° |
| 2026-04-16 08:47 | 49.66772 | 7.93878 | 7612 ft | 288 kts | 38° |
| 2026-04-16 08:48 | 49.68275 | 7.95926 | 7392 ft | 289 kts | 38° |
| 2026-04-16 08:48 | 49.69780 | 7.97981 | 7180 ft | 289 kts | 38° |
| 2026-04-16 08:48 | 49.71290 | 8.00043 | 6926 ft | 290 kts | 38° |
| 2026-04-16 08:48 | 49.72804 | 8.02112 | 6707 ft | 290 kts | 38° |
| 2026-04-16 08:49 | 49.74310 | 8.04173 | 6530 ft | 289 kts | 38° |
| 2026-04-16 08:49 | 49.75805 | 8.06221 | 6372 ft | 286 kts | 38° |
| 2026-04-16 08:49 | 49.77286 | 8.08251 | 6222 ft | 283 kts | 38° |
| 2026-04-16 08:49 | 49.78498 | 8.09912 | 6099 ft | 281 kts | 38° |
| 2026-04-16 08:50 | 49.79957 | 8.11914 | 5940 ft | 279 kts | 38° |
| 2026-04-16 08:50 | 49.81425 | 8.13928 | 5772 ft | 277 kts | 39° |
| 2026-04-16 08:50 | 49.82860 | 8.15900 | 5616 ft | 276 kts | 39° |
| 2026-04-16 08:50 | 49.84273 | 8.17841 | 5631 ft | 273 kts | 39° |
| 2026-04-16 08:51 | 49.85688 | 8.19791 | 5455 ft | 272 kts | 39° |
| 2026-04-16 08:51 | 49.87103 | 8.21742 | 5246 ft | 272 kts | 39° |
| 2026-04-16 08:51 | 49.88512 | 8.23685 | 5095 ft | 270 kts | 39° |
| 2026-04-16 08:51 | 49.89896 | 8.25596 | 4887 ft | 264 kts | 40° |
| 2026-04-16 08:52 | 49.91262 | 8.27480 | 4404 ft | 263 kts | 40° |
| 2026-04-16 08:52 | 49.92620 | 8.29355 | 4068 ft | 256 kts | 41° |
| 2026-04-16 08:52 | 49.93907 | 8.31138 | 4018 ft | 238 kts | 41° |
| 2026-04-16 08:52 | 49.95082 | 8.32768 | 3999 ft | 210 kts | 41° |
| 2026-04-16 08:53 | 49.96111 | 8.34195 | 3988 ft | 188 kts | 41° |
| 2026-04-16 08:53 | 49.97024 | 8.35460 | 3983 ft | 169 kts | 41° |
| 2026-04-16 08:53 | 49.97880 | 8.36647 | 3807 ft | 164 kts | 41° |
| 2026-04-16 08:53 | 49.98747 | 8.37848 | 3525 ft | 166 kts | 41° |
| 2026-04-16 08:54 | 49.99416 | 8.39262 | 3213 ft | 158 kts | 63° |
| 2026-04-16 08:54 | 49.99789 | 8.40811 | 2884 ft | 150 kts | 73° |
| 2026-04-16 08:54 | 50.00082 | 8.42317 | 2550 ft | 145 kts | 71° |
| 2026-04-16 08:54 | 50.00435 | 8.43766 | 2213 ft | 143 kts | 68° |
| 2026-04-16 08:55 | 50.00792 | 8.45215 | 1963 ft | 142 kts | 70° |
| 2026-04-16 08:55 | 50.01142 | 8.46651 | 1735 ft | 142 kts | 69° |
| 2026-04-16 08:55 | 50.01494 | 8.48090 | 1532 ft | 142 kts | 69° |
| 2026-04-16 08:55 | 50.01849 | 8.49538 | 1275 ft | 144 kts | 69° |
| 2026-04-16 08:56 | 50.02205 | 8.50986 | 943 ft | 145 kts | 69° |
| 2026-04-16 08:56 | 50.02559 | 8.52430 | 620 ft | 140 kts | 69° |
| 2026-04-16 08:56 | 50.02879 | 8.53832 | 436 ft | 140 kts | 71° |
| 2026-04-16 08:56 | 50.03148 | 8.55021 | 380 ft | 50 kts | 70° |
| 2026-04-16 08:57 | 50.03246 | 8.55450 | 380 ft | 41 kts | 70° |
| 2026-04-16 08:57 | 50.03374 | 8.56011 | 380 ft | 60 kts | 70° |
| 2026-04-16 08:57 | 50.03524 | 8.56392 | 380 ft | 32 kts | 32° |
| 2026-04-16 08:57 | 50.03783 | 8.56638 | 380 ft | 44 kts | 22° |
| 2026-04-16 08:58 | 50.04045 | 8.56722 | 380 ft | 35 kts | 8° |
| 2026-04-16 08:58 | 50.04256 | 8.56801 | 380 ft | 28 kts | 17° |
| 2026-04-16 08:58 | 50.04421 | 8.56898 | 380 ft | 22 kts | 28° |
| 2026-04-16 08:58 | 50.04517 | 8.57032 | 380 ft | 14 kts | 46° |
| 2026-04-16 08:59 | 50.04574 | 8.57091 | 380 ft | 0 kts | 29° |